Dades meteomassalio
Diari Summary for Juny 18, 2017 Units:  Metric    English   Both
« Previous Day
Next Day »
Diari Semanal Mensual Anual Personalitzat
  Maxima: Minima: Mijana:
Temperatura: -17.8 °C -7.2 °C -2.4 °C
Rosada: -17.8 °C -10.6 °C -8.8 °C
Humitat: Humidity % 33 % 52 %
Velocitat del vent: 0 km/h 0 km/h 16.6 km/h
Racha vent: 0 km/h - -
Vent:- - ESE
Pressio: 0 hPa 34235.8 hPa -
Pluja: 0 mm    
Historical Graphs
 
 
Tabular Data for Juny 18, 2017
Time Temperature Dew Point Pressure Wind Wind Speed Wind Gust Humidity Rainfall Rate (Hourly) solar Conditions
-17.8 °C -17.8 °C 0 hPa Calm     Humidity % 0 mm SolarRadiationWatts/m^2 W/m2 Conditions
00:03 -2.8 °C -8.4 °C 34313.7 hPa Calm     54 % 0 mm 0.0 W/m2 CLR
00:08 -2.9 °C -8.5 °C 34313.7 hPa Calm     54 % 0 mm 0.0 W/m2 CLR
00:13 -2.9 °C -8.5 °C 34313.7 hPa Calm     54 % 0 mm 0.0 W/m2 CLR
00:18 -2.9 °C -8.6 °C 34313.7 hPa Calm     54 % 0 mm 0.0 W/m2 CLR
00:23 -3 °C -8.4 °C 34313.7 hPa Calm     55 % 0 mm 0.0 W/m2 CLR
00:28 -3.1 °C -8.6 °C 34313.7 hPa Calm     55 % 0 mm 0.0 W/m2 CLR
00:33 -3.2 °C -8.6 °C 34327.3 hPa Calm     55 % 0 mm 0.0 W/m2 CLR
00:38 -3.2 °C -8.4 °C 34313.7 hPa Calm     56 % 0 mm 0.0 W/m2 CLR
00:43 -3.2 °C -8.4 °C 34327.3 hPa Calm     56 % 0 mm 0.0 W/m2 CLR
00:48 -3.3 °C -8.4 °C 34313.7 hPa Calm     57 % 0 mm 0.0 W/m2 CLR
00:53 -3.4 °C -8.5 °C 34313.7 hPa Calm     57 % 0 mm 0.0 W/m2 CLR
00:58 -3.5 °C -8.4 °C 34313.7 hPa Calm     58 % 0 mm 0.0 W/m2 CLR
01:03 -3.6 °C -8.5 °C 34313.7 hPa Calm     58 % 0 mm 0.0 W/m2 CLR
01:08 -3.6 °C -8.5 °C 34313.7 hPa Calm     58 % 0 mm 0.0 W/m2 CLR
01:13 -3.6 °C -8.5 °C 34313.7 hPa Calm     58 % 0 mm 0.0 W/m2 CLR
01:18 -3.6 °C -8.6 °C 34313.7 hPa Calm     58 % 0 mm 0.0 W/m2 CLR
01:23 -3.7 °C -8.6 °C 34313.7 hPa Calm     58 % 0 mm 0.0 W/m2 CLR
01:28 -3.7 °C -8.5 °C 34313.7 hPa Calm     59 % 0 mm 0.0 W/m2 CLR
01:33 -3.7 °C -8.5 °C 34313.7 hPa Calm     59 % 0 mm 0.0 W/m2 CLR
01:35 -3.7 °C -8.5 °C 34313.7 hPa Calm     59 % 0 mm 0.0 W/m2 CLR
01:40 -3.8 °C -8.6 °C 34303.6 hPa Calm     59 % 0 mm 0.0 W/m2 CLR
01:45 -3.9 °C -8.6 °C 34303.6 hPa Calm     60 % 0 mm 0.0 W/m2 CLR
01:50 -4.1 °C -8.5 °C 34313.7 hPa Calm     61 % 0 mm 0.0 W/m2 CLR
01:55 -4.2 °C -8.6 °C 34327.3 hPa North 20.9 km/h 20.9 km/h 62 % 0 mm 0.0 W/m2 CLR
02:00 -4.3 °C -8.7 °C 34327.3 hPa Calm     62 % 0 mm 0.0 W/m2 CLR
02:05 -4.4 °C -8.6 °C 34327.3 hPa Calm     63 % 0 mm 0.0 W/m2 CLR
02:10 -4.5 °C -8.2 °C 34327.3 hPa Calm     66 % 0 mm 0.0 W/m2 CLR
02:15 -4.6 °C -8 °C 34327.3 hPa Calm     68 % 0 mm 0.0 W/m2 CLR
02:20 -4.6 °C -7.9 °C 34327.3 hPa Calm     69 % 0 mm 0.0 W/m2 CLR
02:25 -4.7 °C -7.7 °C 34327.3 hPa Calm     71 % 0 mm 0.0 W/m2 CLR
02:30 -4.7 °C -7.8 °C 34327.3 hPa Calm     71 % 0 mm 0.0 W/m2 CLR
02:35 -4.8 °C -7.9 °C 34327.3 hPa Calm     71 % 0 mm 0.0 W/m2 CLR
02:40 -4.9 °C -8 °C 34327.3 hPa Calm     71 % 0 mm 0.0 W/m2 CLR
02:45 -5.1 °C -7.9 °C 34327.3 hPa Calm     73 % 0 mm 0.0 W/m2 CLR
02:50 -5.2 °C -7.9 °C 34327.3 hPa Calm     74 % 0 mm 0.0 W/m2 CLR
02:55 -5.2 °C -8 °C 34313.7 hPa Calm     73 % 0 mm 0.0 W/m2 CLR
03:00 -5.2 °C -8.2 °C 34327.3 hPa Calm     72 % 0 mm 0.0 W/m2 CLR
03:05 -5.3 °C -8.1 °C 34327.3 hPa Calm     73 % 0 mm 0.0 W/m2 CLR
03:10 -5.4 °C -8.1 °C 34313.7 hPa Calm     74 % 0 mm 0.0 W/m2 CLR
03:15 -5.4 °C -8.2 °C 34313.7 hPa Calm     74 % 0 mm 0.0 W/m2 CLR
03:20 -5.6 °C -8.1 °C 34313.7 hPa Calm     75 % 0 mm 0.0 W/m2 CLR
03:25 -5.7 °C -8.2 °C 34327.3 hPa Calm     75 % 0 mm 0.0 W/m2 CLR
03:30 -5.8 °C -8.3 °C 34327.3 hPa Calm     75 % 0 mm 0.0 W/m2 CLR
03:35 -5.8 °C -8.2 °C 34327.3 hPa Calm     77 % 0 mm 0.0 W/m2 CLR
03:40 -5.9 °C -8.6 °C 34327.3 hPa Calm     74 % 0 mm 0.0 W/m2 CLR
03:45 -5.9 °C -8.4 °C 34327.3 hPa Calm     75 % 0 mm 0.0 W/m2 CLR
03:46 -5.9 °C -8.5 °C 34327.3 hPa Calm     75 % 0 mm 0.0 W/m2 CLR
03:51 -5.9 °C -8.5 °C 34327.3 hPa Calm     75 % 0 mm 0.0 W/m2 CLR
03:56 -6 °C -8.6 °C 34327.3 hPa Calm     75 % 0 mm 0.0 W/m2 CLR
04:01 -6.1 °C -8.5 °C 34327.3 hPa Calm     76 % 0 mm 0.0 W/m2 CLR
04:06 -6.2 °C -8.7 °C 34327.3 hPa Calm     75 % 0 mm 0.0 W/m2 CLR
04:11 -6.2 °C -8.8 °C 34327.3 hPa Calm     75 % 0 mm 0.0 W/m2 CLR
04:16 -6.3 °C -8.8 °C 34327.3 hPa Calm     75 % 0 mm 0.0 W/m2 CLR
04:21 -6.3 °C -8.9 °C 34327.3 hPa Calm     75 % 0 mm 0.0 W/m2 CLR
04:26 -6.4 °C -9.1 °C 34327.3 hPa Calm     74 % 0 mm 0.0 W/m2 CLR
04:31 -6.4 °C -9.1 °C 34327.3 hPa Calm     74 % 0 mm 0.0 W/m2 CLR
04:36 -6.5 °C -9.1 °C 34327.3 hPa Calm     74 % 0 mm 0.0 W/m2 CLR
04:41 -6.6 °C -9.1 °C 34327.3 hPa Calm     75 % 0 mm 0.0 W/m2 CLR
04:46 -6.6 °C -9.1 °C 34327.3 hPa Calm     75 % 0 mm 0.0 W/m2 CLR
04:51 -6.6 °C -9.1 °C 34327.3 hPa Calm     75 % 0 mm 0.0 W/m2 CLR
04:56 -6.7 °C -9.1 °C 34327.3 hPa Calm     76 % 0 mm 0.0 W/m2 CLR
05:01 -6.7 °C -9.1 °C 34327.3 hPa Calm     76 % 0 mm 0.0 W/m2 CLR
05:06 -6.8 °C -9.2 °C 34327.3 hPa Calm     76 % 0 mm 0.0 W/m2 CLR
05:11 -6.8 °C -9.2 °C 34327.3 hPa Calm     76 % 0 mm 0.0 W/m2 CLR
05:16 -6.8 °C -9.2 °C 34327.3 hPa Calm     76 % 0 mm 0.0 W/m2 CLR
05:21 -6.8 °C -9.2 °C 34327.3 hPa Calm     76 % 0 mm 0.0 W/m2 CLR
05:26 -6.8 °C -9.2 °C 34327.3 hPa Calm     76 % 0 mm 0.0 W/m2 CLR
05:31 -6.8 °C -9.2 °C 34327.3 hPa Calm     76 % 0 mm 0.0 W/m2 CLR
05:36 -6.8 °C -9.3 °C 34327.3 hPa Calm     75 % 0 mm 0.0 W/m2 CLR
05:41 -6.8 °C -9.2 °C 34327.3 hPa Calm     76 % 0 mm 0.0 W/m2 CLR
05:46 -6.8 °C -9.3 °C 34327.3 hPa Calm     76 % 0 mm 0.0 W/m2 CLR
05:51 -6.9 °C -9.3 °C 34327.3 hPa Calm     76 % 0 mm 0.0 W/m2 CLR
05:56 -6.9 °C -9.3 °C 34327.3 hPa Calm     76 % 0 mm 0.0 W/m2 CLR
06:01 -6.8 °C -9.3 °C 34327.3 hPa Calm     76 % 0 mm 0.0 W/m2 CLR
06:06 -6.8 °C -9.4 °C 34327.3 hPa Calm     75 % 0 mm 0.0 W/m2 CLR
06:11 -7 °C -9.4 °C 34337.4 hPa Calm     76 % 0 mm 0.0 W/m2 CLR
06:16 -7 °C -9.4 °C 34337.4 hPa Calm     76 % 0 mm 0.0 W/m2 OVC
06:21 -7.1 °C -9.4 °C 34337.4 hPa Calm     76 % 0 mm 0.0 W/m2 OVC
06:26 -7.1 °C -9.3 °C 34337.4 hPa Calm     77 % 0 mm 0.0 W/m2 OVC
06:31 -7.1 °C -9.4 °C 34327.3 hPa Calm     77 % 0 mm 5.0 W/m2 OVC
06:36 -7.2 °C -9.4 °C 34327.3 hPa Calm     77 % 0 mm 9.0 W/m2 BKN
06:41 -7.2 °C -9.4 °C 34327.3 hPa Calm     77 % 0 mm 11.0 W/m2 BKN
06:46 -7.2 °C -9.5 °C 34337.4 hPa Calm     77 % 0 mm 14.0 W/m2 BKN
06:51 -7.2 °C -9.5 °C 34337.4 hPa Calm     77 % 0 mm 16.0 W/m2 BKN
06:56 -7.2 °C -9.5 °C 34337.4 hPa Calm     77 % 0 mm 19.0 W/m2 BKN
07:01 -7.2 °C -9.5 °C 34337.4 hPa Calm     77 % 0 mm 21.0 W/m2 BKN
07:06 -7.2 °C -9.5 °C 34337.4 hPa Calm     77 % 0 mm 32.0 W/m2 BKN
07:11 -7.2 °C -9.4 °C 34337.4 hPa Calm     77 % 0 mm 39.0 W/m2 BKN
07:16 -7.1 °C -9.3 °C 34337.4 hPa Calm     77 % 0 mm 49.0 W/m2 SCT
07:21 -7 °C -9.4 °C 34337.4 hPa Calm     76 % 0 mm 60.0 W/m2 SCT
07:26 -6.8 °C -9.3 °C 34337.4 hPa Calm     76 % 0 mm 72.0 W/m2 FEW
07:31 -6.8 °C -9.3 °C 34337.4 hPa Calm     75 % 0 mm 84.0 W/m2 FEW
07:36 -6.7 °C -9.2 °C 34337.4 hPa Calm     75 % 0 mm 98.0 W/m2 FEW
07:41 -6.6 °C -9.2 °C 34337.4 hPa Calm     74 % 0 mm 113.0 W/m2 CLR
07:46 -6.3 °C -9 °C 34337.4 hPa Calm     74 % 0 mm 128.0 W/m2 CLR
07:51 -6.2 °C -9.1 °C 34337.4 hPa Calm     72 % 0 mm 142.0 W/m2 CLR
07:57 -6.1 °C -9.1 °C 34337.4 hPa Calm     71 % 0 mm 158.0 W/m2 CLR
08:02 -5.9 °C -8.9 °C 34337.4 hPa Calm     71 % 0 mm 179.0 W/m2 CLR
08:07 -5.6 °C -8.9 °C 34337.4 hPa Calm     69 % 0 mm 195.0 W/m2 CLR
08:12 -5.4 °C -8.8 °C 34337.4 hPa Calm     68 % 0 mm 209.0 W/m2 CLR
08:17 -5.2 °C -8.8 °C 34337.4 hPa Calm     66 % 0 mm 223.0 W/m2 CLR
08:22 -4.9 °C -8.8 °C 34337.4 hPa Calm     65 % 0 mm 237.0 W/m2 CLR
08:27 -4.8 °C -8.8 °C 34337.4 hPa Calm     64 % 0 mm 255.0 W/m2 CLR
08:32 -4.6 °C -8.7 °C 34337.4 hPa Calm     63 % 0 mm 269.0 W/m2 CLR
08:37 -4.3 °C -8.7 °C 34337.4 hPa Calm     62 % 0 mm 285.0 W/m2 CLR
08:42 -4.2 °C -8.8 °C 34337.4 hPa Calm     60 % 0 mm 302.0 W/m2 CLR
08:47 -4 °C -8.6 °C 34337.4 hPa Calm     60 % 0 mm 316.0 W/m2 CLR
08:52 -3.8 °C -8.6 °C 34337.4 hPa Calm     59 % 0 mm 332.0 W/m2 CLR
08:57 -3.7 °C -8.7 °C 34337.4 hPa Calm     58 % 0 mm 346.0 W/m2 CLR
09:02 -3.6 °C -8.5 °C 34337.4 hPa Calm     58 % 0 mm 364.0 W/m2 CLR
09:07 -3.3 °C -8.6 °C 34337.4 hPa Calm     56 % 0 mm 380.0 W/m2 CLR
09:12 -3 °C -8.6 °C 34337.4 hPa Calm     54 % 0 mm 394.0 W/m2 CLR
09:17 -2.8 °C -8.6 °C 34337.4 hPa Calm     53 % 0 mm 410.0 W/m2 CLR
09:22 -2.7 °C -8.7 °C 34337.4 hPa Calm     52 % 0 mm 427.0 W/m2 CLR
09:27 -2.6 °C -8.7 °C 34337.4 hPa Calm     51 % 0 mm 441.0 W/m2 CLR
09:32 -2.5 °C -8.8 °C 34337.4 hPa Calm     50 % 0 mm 457.0 W/m2 CLR
09:37 -2.5 °C -8.8 °C 34337.4 hPa Calm     50 % 0 mm 471.0 W/m2 CLR
09:42 -2.4 °C -8.8 °C 34337.4 hPa ENE 15 km/h 15 km/h 50 % 0 mm 485.0 W/m2 CLR
09:47 -2.3 °C -8.7 °C 34337.4 hPa NE 11.9 km/h 11.9 km/h 50 % 0 mm 501.0 W/m2 CLR
09:52 -2.2 °C -8.6 °C 34337.4 hPa ENE 11.9 km/h 11.9 km/h 50 % 0 mm 517.0 W/m2 CLR
09:57 -2.2 °C -8.7 °C 34327.3 hPa ENE 6 km/h 6 km/h 49 % 0 mm 531.0 W/m2 CLR
10:02 -2.1 °C -8.6 °C 34337.4 hPa ENE 3.1 km/h   49 % 0 mm 545.0 W/m2 CLR
10:07 -1.9 °C -8.8 °C 34327.3 hPa ENE 15 km/h 15 km/h 47 % 0 mm 563.0 W/m2 CLR
10:12 -1.8 °C -8.7 °C 34327.3 hPa ENE 10.3 km/h 10.3 km/h 47 % 0 mm 575.0 W/m2 CLR
10:17 -1.8 °C -8.9 °C 34327.3 hPa ENE 7.7 km/h 7.7 km/h 46 % 0 mm 589.0 W/m2 CLR
10:22 -1.8 °C -8.9 °C 34327.3 hPa ENE 12.9 km/h 12.9 km/h 46 % 0 mm 603.0 W/m2 CLR
10:27 -1.7 °C -9 °C 34327.3 hPa ENE 9 km/h 9 km/h 45 % 0 mm 615.0 W/m2 CLR
10:32 -1.6 °C -9.1 °C 34327.3 hPa Calm     44 % 0 mm 631.0 W/m2 CLR
10:37 -1.3 °C -9.1 °C 34327.3 hPa ENE 3.1 km/h 3.1 km/h 43 % 0 mm 642.0 W/m2 CLR
10:42 -1.3 °C -8.8 °C 34327.3 hPa ENE 15 km/h 15 km/h 44 % 0 mm 654.0 W/m2 CLR
10:47 -1.3 °C -8.8 °C 34327.3 hPa ENE 15 km/h 15 km/h 44 % 0 mm 668.0 W/m2 CLR
10:52 -1.2 °C -8.8 °C 34313.7 hPa NE 17.9 km/h 17.9 km/h 44 % 0 mm 680.0 W/m2 CLR
10:57 -1.2 °C -8.7 °C 34313.7 hPa ENE 15 km/h 15 km/h 44 % 0 mm 693.0 W/m2 CLR
11:02 -1.2 °C -8.9 °C 34313.7 hPa ENE 23.8 km/h 23.8 km/h 43 % 0 mm 703.0 W/m2 CLR
11:07 -1.1 °C -8.8 °C 34313.7 hPa ENE 23.8 km/h 23.8 km/h 43 % 0 mm 715.0 W/m2 CLR
11:12 -1.1 °C -8.8 °C 34313.7 hPa Calm     43 % 0 mm 726.0 W/m2 CLR
11:17 -0.9 °C -8.9 °C 34313.7 hPa NNE 15 km/h 15 km/h 42 % 0 mm 737.0 W/m2 CLR
11:22 -0.8 °C -9 °C 34313.7 hPa NNW 20.9 km/h 20.9 km/h 41 % 0 mm 745.0 W/m2 CLR
11:27 -0.7 °C -9.1 °C 34313.7 hPa North 17.9 km/h 17.9 km/h 40 % 0 mm 758.0 W/m2 CLR
11:32 -0.7 °C -8.8 °C 34313.7 hPa NE 25.9 km/h 25.9 km/h 41 % 0 mm 768.0 W/m2 CLR
11:37 -0.6 °C -9.2 °C 34313.7 hPa NNE 26.9 km/h 26.9 km/h 39 % 0 mm 779.0 W/m2 CLR
11:42 -0.5 °C -8.9 °C 34303.6 hPa North 17.9 km/h 17.9 km/h 40 % 0 mm 788.0 W/m2 CLR
11:47 -0.4 °C -9.1 °C 34303.6 hPa NNE 20.9 km/h 20.9 km/h 39 % 0 mm 796.0 W/m2 CLR
11:52 -0.3 °C -8.9 °C 34303.6 hPa NNE 20.9 km/h 20.9 km/h 39 % 0 mm 807.0 W/m2 CLR
11:57 -0.2 °C -8.8 °C 34303.6 hPa NNE 15 km/h 15 km/h 39 % 0 mm 814.0 W/m2 CLR
12:02 0.1 °C -8.7 °C 34303.6 hPa NE 29.8 km/h 29.8 km/h 39 % 0 mm 824.0 W/m2 CLR
12:07 0.3 °C -8.7 °C 34303.6 hPa Calm     38 % 0 mm 831.0 W/m2 CLR
12:12 0.4 °C -8.6 °C 34303.6 hPa NE 20.8 km/h 20.8 km/h 38 % 0 mm 838.0 W/m2 CLR
12:17 0.5 °C -8.7 °C 34303.6 hPa NNE 23.8 km/h 23.8 km/h 37 % 0 mm 846.0 W/m2 CLR
12:22 0.6 °C -8.7 °C 34303.6 hPa ENE 26.9 km/h 26.9 km/h 37 % 0 mm 856.0 W/m2 CLR
12:27 0.6 °C -8.7 °C 34293.4 hPa NNE 23.8 km/h 23.8 km/h 37 % 0 mm 861.0 W/m2 CLR
12:32 0.7 °C -8.4 °C 34293.4 hPa East 15 km/h 15 km/h 38 % 0 mm 867.0 W/m2 CLR
12:37 0.7 °C -8.5 °C 34293.4 hPa NE 29.8 km/h 29.8 km/h 37 % 0 mm 875.0 W/m2 CLR
12:42 0.8 °C -8.4 °C 34293.4 hPa NE 28.5 km/h 28.5 km/h 37 % 0 mm 879.0 W/m2 CLR
12:47 1 °C -8.6 °C 34293.4 hPa East 29.8 km/h 29.8 km/h 36 % 0 mm 888.0 W/m2 CLR
12:52 1 °C -9.1 °C 34293.4 hPa ENE 23.8 km/h 23.8 km/h 34 % 0 mm 893.0 W/m2 CLR
12:57 1 °C -9 °C 34293.4 hPa ENE 12.9 km/h 12.9 km/h 34 % 0 mm 896.0 W/m2 CLR
13:02 1 °C -9.1 °C 34279.9 hPa Calm     34 % 0 mm 898.0 W/m2 CLR
13:07 1.1 °C -9.2 °C 34279.9 hPa ESE 33.6 km/h 33.6 km/h 33 % 0 mm 909.0 W/m2 CLR
13:12 1.1 °C -8.9 °C 34279.9 hPa NE 17.9 km/h 17.9 km/h 34 % 0 mm 911.0 W/m2 CLR
13:17 1.2 °C -9.1 °C 34279.9 hPa ENE 26.9 km/h 26.9 km/h 33 % 0 mm 914.0 W/m2 CLR
13:22 1.3 °C -8.8 °C 34279.9 hPa ESE 28.5 km/h 28.5 km/h 34 % 0 mm 918.0 W/m2 CLR
13:27 1.3 °C -9 °C 34269.7 hPa East 15.6 km/h 15.6 km/h 33 % 0 mm 919.0 W/m2 CLR
13:32 1.3 °C -8.5 °C 34269.7 hPa East 29.8 km/h 29.8 km/h 35 % 0 mm 921.0 W/m2 CLR
13:37 1.3 °C -8.7 °C 34269.7 hPa ESE 29.8 km/h 29.8 km/h 34 % 0 mm 925.0 W/m2 CLR
13:42 1.3 °C -8.4 °C 34269.7 hPa ENE 35.7 km/h 35.7 km/h 35 % 0 mm 921.0 W/m2 CLR
13:43 1.3 °C -8.4 °C 34269.7 hPa ENE 35.7 km/h 35.7 km/h 35 % 0 mm 923.0 W/m2 CLR
13:48 1.3 °C -8.3 °C 34269.7 hPa ENE 18.2 km/h 18.2 km/h 36 % 0 mm 921.0 W/m2 CLR
13:53 1.4 °C -8.2 °C 34269.7 hPa ENE 20.9 km/h 20.9 km/h 36 % 0 mm 919.0 W/m2 CLR
13:58 1.5 °C -8.1 °C 34269.7 hPa SE 29.8 km/h 29.8 km/h 36 % 0 mm 925.0 W/m2 CLR
14:03 1.6 °C -8.3 °C 34269.7 hPa ESE 41.7 km/h 41.7 km/h 35 % 0 mm 923.0 W/m2 CLR
14:08 1.3 °C -8 °C 34269.7 hPa East 47.6 km/h 47.6 km/h 37 % 0 mm 923.0 W/m2 CLR
14:13 1.2 °C -8.1 °C 34256.2 hPa ENE 38.8 km/h 38.8 km/h 37 % 0 mm 923.0 W/m2 CLR
14:18 1.2 °C -7.8 °C 34256.2 hPa East 35.7 km/h 35.7 km/h 38 % 0 mm 923.0 W/m2 CLR
14:23 1.3 °C -8.1 °C 34256.2 hPa ESE 50.7 km/h 50.7 km/h 37 % 0 mm 926.0 W/m2 CLR
14:28 1.3 °C -8.3 °C 34256.2 hPa ESE 32.8 km/h 32.8 km/h 36 % 0 mm 919.0 W/m2 CLR
14:33 1.3 °C -8.2 °C 34256.2 hPa SE 23.8 km/h 23.8 km/h 36 % 0 mm 921.0 W/m2 CLR
14:38 1.3 °C -7.6 °C 34246 hPa ESE 29.8 km/h 29.8 km/h 39 % 0 mm 919.0 W/m2 CLR
14:43 1.3 °C -8.4 °C 34246 hPa ESE 32.8 km/h 32.8 km/h 35 % 0 mm 918.0 W/m2 CLR
14:48 1.5 °C -8.1 °C 34246 hPa SE 50.7 km/h 50.7 km/h 36 % 0 mm 909.0 W/m2 CLR
14:53 1.4 °C -8.4 °C 34246 hPa SE 32.8 km/h 32.8 km/h 35 % 0 mm 911.0 W/m2 CLR
14:58 1.3 °C -8.2 °C 34235.8 hPa SSE 50.7 km/h 50.7 km/h 36 % 0 mm 905.0 W/m2 CLR
14:59 1.3 °C -8.2 °C 34246 hPa SE 47.6 km/h 47.6 km/h 36 % 0 mm 905.0 W/m2 CLR
15:04 1.5 °C -8.3 °C 34235.8 hPa SSE 35.7 km/h 35.7 km/h 35 % 0 mm 904.0 W/m2 CLR
15:09 1.6 °C -8.1 °C 34246 hPa SE 44.7 km/h 44.7 km/h 36 % 0 mm 895.0 W/m2 CLR
15:14 1.6 °C -8.1 °C 34235.8 hPa SSE 44.7 km/h 44.7 km/h 36 % 0 mm 891.0 W/m2 CLR
15:19 1.4 °C -8.2 °C 34246 hPa SE 38.8 km/h 38.8 km/h 36 % 0 mm 886.0 W/m2 CLR
15:24 1.5 °C -8.1 °C 34235.8 hPa ESE 32.8 km/h 32.8 km/h 36 % 0 mm 879.0 W/m2 CLR
15:29 1.6 °C -8 °C 34235.8 hPa SSE 31.1 km/h 31.1 km/h 36 % 0 mm 874.0 W/m2 CLR
15:34 1.6 °C -8.1 °C 34235.8 hPa South 44.7 km/h 44.7 km/h 36 % 0 mm 870.0 W/m2 CLR
15:39 1.6 °C -8.1 °C 34235.8 hPa SE 41.7 km/h 41.7 km/h 36 % 0 mm 863.0 W/m2 CLR
15:44 1.4 °C -7.9 °C 34235.8 hPa SE 38.8 km/h 38.8 km/h 37 % 0 mm 858.0 W/m2 CLR
15:49 1.3 °C -7.9 °C 34235.8 hPa SE 41.7 km/h 41.7 km/h 37 % 0 mm 847.0 W/m2 CLR
15:54 1.5 °C -7.9 °C 34235.8 hPa SE 38.8 km/h 38.8 km/h 37 % 0 mm 840.0 W/m2 CLR
15:59 1.4 °C -7.9 °C 34235.8 hPa SE 47.6 km/h 47.6 km/h 37 % 0 mm 830.0 W/m2 CLR
16:04 1.3 °C -8 °C 34235.8 hPa SSE 47.6 km/h 47.6 km/h 37 % 0 mm 817.0 W/m2 CLR
16:10 1.5 °C -7.9 °C 34235.8 hPa SE 49.2 km/h 49.2 km/h 37 % 0 mm 802.0 W/m2 CLR
16:15 1.4 °C -7.9 °C 34235.8 hPa SE 46.7 km/h 46.7 km/h 37 % 0 mm 791.0 W/m2 CLR
16:20 1.4 °C -7.9 °C 34235.8 hPa South 38.8 km/h 38.8 km/h 37 % 0 mm 786.0 W/m2 CLR
16:25 1.4 °C -7.7 °C 34235.8 hPa ESE 47.6 km/h 47.6 km/h 38 % 0 mm 775.0 W/m2 CLR
16:30 1.5 °C -7.6 °C 34235.8 hPa SE 38.8 km/h 38.8 km/h 38 % 0 mm 765.0 W/m2 CLR
16:35 1.3 °C -7.8 °C 34235.8 hPa South 35.7 km/h 35.7 km/h 38 % 0 mm 765.0 W/m2 CLR
16:40 1.2 °C -7.9 °C 34235.8 hPa ESE 50.7 km/h 50.7 km/h 38 % 0 mm 752.0 W/m2 CLR
16:50 1.2 °C -7.9 °C 34235.8 hPa ESE 47.6 km/h 47.6 km/h 38 % 0 mm 729.0 W/m2 CLR
16:55 1.1 °C -7.8 °C 34235.8 hPa ESE 50.7 km/h 50.7 km/h 39 % 0 mm 719.0 W/m2 CLR
17:00 1 °C -7.8 °C 34235.8 hPa SE 44.1 km/h 44.1 km/h 39 % 0 mm 705.0 W/m2 CLR
17:05 1.1 °C -7.8 °C 34235.8 hPa ESE 36.2 km/h 36.2 km/h 39 % 0 mm 691.0 W/m2 CLR
17:10 1.1 °C -8.2 °C 34235.8 hPa SE 41.7 km/h 41.7 km/h 37 % 0 mm 679.0 W/m2 CLR
17:15 1.1 °C -8.2 °C 34235.8 hPa SE 41.7 km/h 41.7 km/h 37 % 0 mm 656.0 W/m2 CLR
17:20 0.9 °C -8.1 °C 34235.8 hPa SE 44.7 km/h 44.7 km/h 38 % 0 mm 645.0 W/m2 CLR
17:25 0.9 °C -8.2 °C 34235.8 hPa SSE 32.8 km/h 32.8 km/h 38 % 0 mm 636.0 W/m2 CLR
17:30 1.1 °C -8.4 °C 34235.8 hPa SE 41.7 km/h 41.7 km/h 36 % 0 mm 624.0 W/m2 CLR
17:35 1.1 °C -8.2 °C 34235.8 hPa ESE 41.7 km/h 41.7 km/h 37 % 0 mm 621.0 W/m2 CLR
17:40 1.1 °C -8.5 °C 34235.8 hPa SE 38.8 km/h 38.8 km/h 36 % 0 mm 606.0 W/m2 CLR
17:45 1 °C -8.5 °C 34235.8 hPa SSE 29.8 km/h 29.8 km/h 36 % 0 mm 587.0 W/m2 CLR
17:50 0.9 °C -8.6 °C 34235.8 hPa ESE 44.7 km/h 44.7 km/h 36 % 0 mm 577.0 W/m2 CLR
17:55 0.9 °C -8.6 °C 34235.8 hPa ESE 44.7 km/h 44.7 km/h 36 % 0 mm 563.0 W/m2 CLR
18:00 0.9 °C -8.6 °C 34235.8 hPa ESE 41.7 km/h 41.7 km/h 36 % 0 mm 548.0 W/m2 CLR
18:05 0.9 °C -8.6 °C 34235.8 hPa ESE 35.7 km/h 35.7 km/h 36 % 0 mm 536.0 W/m2 CLR
18:10 0.8 °C -8.7 °C 34235.8 hPa SE 53.6 km/h 53.6 km/h 36 % 0 mm 522.0 W/m2 CLR
18:15 0.9 °C -8.6 °C 34235.8 hPa ESE 38.8 km/h 38.8 km/h 36 % 0 mm 506.0 W/m2 CLR
18:20 0.8 °C -8.7 °C 34235.8 hPa SE 53.6 km/h 53.6 km/h 36 % 0 mm 494.0 W/m2 CLR
18:25 0.8 °C -8.7 °C 34235.8 hPa SE 44.7 km/h 44.7 km/h 36 % 0 mm 478.0 W/m2 CLR
18:30 0.7 °C -8.8 °C 34235.8 hPa SE 36.2 km/h 36.2 km/h 36 % 0 mm 464.0 W/m2 CLR
18:35 0.7 °C -8.6 °C 34246 hPa SE 44.7 km/h 44.7 km/h 37 % 0 mm 452.0 W/m2 CLR
18:40 0.6 °C -8.7 °C 34246 hPa SSE 36.2 km/h 36.2 km/h 37 % 0 mm 431.0 W/m2 CLR
18:45 0.4 °C -8.8 °C 34246 hPa ESE 47.6 km/h 47.6 km/h 37 % 0 mm 415.0 W/m2 CLR
18:50 0.4 °C -8.8 °C 34246 hPa SSE 44.7 km/h 44.7 km/h 37 % 0 mm 399.0 W/m2 CLR
18:55 0.4 °C -8.8 °C 34246 hPa ESE 41.7 km/h 41.7 km/h 37 % 0 mm 385.0 W/m2 CLR
19:00 0.3 °C -8.9 °C 34246 hPa ESE 35.7 km/h 35.7 km/h 37 % 0 mm 367.0 W/m2 CLR
19:05 0.2 °C -8.7 °C 34246 hPa SE 23.8 km/h 23.8 km/h 38 % 0 mm 352.0 W/m2 CLR
19:10 0.2 °C -8.8 °C 34256.2 hPa SSE 44.7 km/h 44.7 km/h 38 % 0 mm 338.0 W/m2 CLR
19:15 0.2 °C -8.8 °C 34256.2 hPa SSE 29.8 km/h 29.8 km/h 38 % 0 mm 322.0 W/m2 CLR
19:20 0.1 °C -8.7 °C 34256.2 hPa ESE 36.2 km/h 36.2 km/h 39 % 0 mm 306.0 W/m2 CLR
19:25 0.1 °C -8.7 °C 34256.2 hPa SE 32.8 km/h 32.8 km/h 39 % 0 mm 292.0 W/m2 CLR
19:30 0 °C -8.7 °C 34256.2 hPa SE 35.7 km/h 35.7 km/h 39 % 0 mm 278.0 W/m2 CLR
19:35 -0.1 °C -8.8 °C 34256.2 hPa SSE 35.7 km/h 35.7 km/h 39 % 0 mm 264.0 W/m2 CLR
19:36 -0.1 °C -8.8 °C 34256.2 hPa ESE 35.7 km/h 35.7 km/h 39 % 0 mm 260.0 W/m2 CLR
19:41 -0.2 °C -8.7 °C 34256.2 hPa SE 32.8 km/h 32.8 km/h 40 % 0 mm 248.0 W/m2 CLR
19:46 -0.2 °C -8.7 °C 34256.2 hPa SSE 33.6 km/h 33.6 km/h 40 % 0 mm 232.0 W/m2 CLR
19:51 -0.2 °C -8.4 °C 34269.7 hPa SSE 20.9 km/h 20.9 km/h 41 % 0 mm 214.0 W/m2 CLR
19:56 -0.3 °C -8.5 °C 34256.2 hPa ESE 29.8 km/h 29.8 km/h 41 % 0 mm 199.0 W/m2 CLR
20:01 -0.3 °C -8.6 °C 34256.2 hPa SE 35.7 km/h 35.7 km/h 41 % 0 mm 183.0 W/m2 CLR
20:06 -0.4 °C -8.7 °C 34269.7 hPa South 23.8 km/h 23.8 km/h 41 % 0 mm 167.0 W/m2 CLR
20:11 -0.4 °C -8.7 °C 34269.7 hPa SE 29.8 km/h 29.8 km/h 41 % 0 mm 149.0 W/m2 CLR
20:16 -0.5 °C -8.7 °C 34269.7 hPa SE 17.9 km/h 17.9 km/h 41 % 0 mm 134.0 W/m2 CLR
20:21 -0.6 °C -9 °C 34269.7 hPa SE 29.8 km/h 29.8 km/h 40 % 0 mm 120.0 W/m2 CLR
20:26 -0.7 °C -9.1 °C 34269.7 hPa SE 32.8 km/h 32.8 km/h 40 % 0 mm 104.0 W/m2 CLR
20:31 -0.7 °C -8.9 °C 34269.7 hPa SE 15 km/h 15 km/h 41 % 0 mm 88.0 W/m2 CLR
20:36 -0.8 °C -8.4 °C 34269.7 hPa ESE 26.9 km/h 26.9 km/h 44 % 0 mm 76.0 W/m2 FEW
20:41 -1.1 °C -8.4 °C 34279.9 hPa SE 28.5 km/h 28.5 km/h 45 % 0 mm 65.0 W/m2 SCT
20:51 -1.3 °C -8.4 °C 34279.9 hPa SSE 32.8 km/h 32.8 km/h 46 % 0 mm 42.0 W/m2 BKN
20:56 -1.4 °C -8.4 °C 34279.9 hPa SE 29.8 km/h 29.8 km/h 47 % 0 mm 33.0 W/m2 BKN
21:01 -1.6 °C -8.5 °C 34279.9 hPa SE 26.9 km/h 26.9 km/h 47 % 0 mm 28.0 W/m2 BKN
21:06 -1.6 °C -8.4 °C 34293.4 hPa SE 26.9 km/h 26.9 km/h 48 % 0 mm 21.0 W/m2 BKN
21:11 -1.7 °C -8.4 °C 34293.4 hPa SE 29.8 km/h 29.8 km/h 48 % 0 mm 18.0 W/m2 BKN
21:16 -1.8 °C -8.6 °C 34293.4 hPa SE 23.8 km/h 23.8 km/h 48 % 0 mm 14.0 W/m2 BKN
21:21 -1.9 °C -8.4 °C 34293.4 hPa SE 15 km/h 15 km/h 49 % 0 mm 11.0 W/m2 BKN
21:26 -2 °C -8.5 °C 34293.4 hPa SE 15 km/h 15 km/h 49 % 0 mm 9.0 W/m2 BKN
21:31 -2.1 °C -8.6 °C 34293.4 hPa SE 20.9 km/h 20.9 km/h 49 % 0 mm 5.0 W/m2 OVC
21:36 -2.2 °C -8.5 °C 34303.6 hPa SE 2.6 km/h 2.6 km/h 50 % 0 mm 0.0 W/m2 OVC
21:41 -2.2 °C -8.6 °C 34303.6 hPa SE 15 km/h 15 km/h 50 % 0 mm 0.0 W/m2 OVC
21:42 -2.3 °C -8.6 °C 34303.6 hPa SSE 15 km/h 15 km/h 50 % 0 mm 0.0 W/m2 OVC
21:47 -2.3 °C -8.7 °C 34303.6 hPa Calm     50 % 0 mm 0.0 W/m2 CLR
21:52 -2.4 °C -8.7 °C 34303.6 hPa SE 15.6 km/h 15.6 km/h 50 % 0 mm 0.0 W/m2 CLR
21:57 -2.4 °C -8.8 °C 34313.7 hPa SSE 20.9 km/h 20.9 km/h 50 % 0 mm 0.0 W/m2 CLR
22:02 -2.6 °C -9.1 °C 34313.7 hPa SE 23.8 km/h 23.8 km/h 49 % 0 mm 0.0 W/m2 CLR
22:07 -2.6 °C -9.1 °C 34313.7 hPa SSE 17.9 km/h 17.9 km/h 49 % 0 mm 0.0 W/m2 CLR
22:12 -2.7 °C -8.9 °C 34327.3 hPa SSE 17.9 km/h 17.9 km/h 50 % 0 mm 0.0 W/m2 CLR
22:17 -2.7 °C -9.2 °C 34327.3 hPa SE 9 km/h 9 km/h 49 % 0 mm 0.0 W/m2 CLR
22:22 -2.8 °C -9.2 °C 34327.3 hPa SE 9 km/h 9 km/h 49 % 0 mm 0.0 W/m2 CLR
22:27 -2.8 °C -9.3 °C 34327.3 hPa SSE 15 km/h 15 km/h 49 % 0 mm 0.0 W/m2 CLR
22:32 -2.9 °C -9.6 °C 34337.4 hPa SSE 11.9 km/h 11.9 km/h 48 % 0 mm 0.0 W/m2 CLR
22:37 -2.9 °C -9.6 °C 34337.4 hPa SSE 20.9 km/h 20.9 km/h 48 % 0 mm 0.0 W/m2 CLR
22:42 -2.9 °C -9.8 °C 34347.6 hPa SSE 23.8 km/h 23.8 km/h 47 % 0 mm 0.0 W/m2 CLR
22:47 -2.9 °C -9.8 °C 34347.6 hPa SE 20.9 km/h 20.9 km/h 47 % 0 mm 0.0 W/m2 CLR
22:52 -3 °C -9.8 °C 34347.6 hPa SSE 17.9 km/h 17.9 km/h 47 % 0 mm 0.0 W/m2 CLR
22:57 -3.1 °C -10.1 °C 34347.6 hPa SSE 15.6 km/h 15.6 km/h 46 % 0 mm 0.0 W/m2 CLR
23:02 -3.1 °C -10.1 °C 34361.1 hPa SSE 23.8 km/h 23.8 km/h 46 % 0 mm 0.0 W/m2 CLR
23:07 -3.2 °C -10.1 °C 34361.1 hPa South 20.9 km/h 20.9 km/h 46 % 0 mm 0.0 W/m2 CLR
23:12 -3.2 °C -10.2 °C 34361.1 hPa SSE 20.9 km/h 20.9 km/h 46 % 0 mm 0.0 W/m2 CLR
23:17 -3.2 °C -10.4 °C 34361.1 hPa SE 29.8 km/h 29.8 km/h 45 % 0 mm 0.0 W/m2 CLR
23:22 -3.2 °C -10.4 °C 34361.1 hPa SSE 15.6 km/h 15.6 km/h 45 % 0 mm 0.0 W/m2 CLR
23:27 -3.3 °C -10.4 °C 34361.1 hPa SSE 20.9 km/h 20.9 km/h 45 % 0 mm 0.0 W/m2 CLR
23:32 -3.3 °C -10.4 °C 34361.1 hPa SSE 23.8 km/h 23.8 km/h 45 % 0 mm 0.0 W/m2 CLR
23:37 -3.4 °C -10.6 °C 34361.1 hPa SE 20.9 km/h 20.9 km/h 45 % 0 mm 0.0 W/m2 CLR
23:42 -3.4 °C -10.4 °C 34371.3 hPa SSE 10.3 km/h 10.3 km/h 46 % 0 mm 0.0 W/m2 CLR
23:47 -3.5 °C -10.4 °C 34361.1 hPa SSE 18.2 km/h 18.2 km/h 46 % 0 mm 0.0 W/m2 CLR
23:52 -3.6 °C -10.5 °C 34371.3 hPa SSE 9 km/h 9 km/h 46 % 0 mm 0.0 W/m2 CLR
23:57 -3.6 °C -10.5 °C 34361.1 hPa Calm     46 % 0 mm 0.0 W/m2 CLR
Lo Temps de Massalio
Compliments of Weather Underground - 1.25 mb